Morro Bay, CA (93442)

11:42 PM PST am 25. Februar 2017 (GMT -0800)
Below Hill Street | | Change Station

Höhe 45 ft 35.38 °N, 120.85 °W | Updated 8 seconds ago

Regen
Regen
46.8 °F
gefühlte 47 °F
N
0.4
Wind Wechselnd Wind aus Nordost
Gusts 2.5 mph

Heute
Max. -- | schwach -- °F
--% Regenrisiko
Gestern
Max. -- | schwach -- °F
Precip. -- inch
Druck 30.03 inch
Sichtweite 10.0 Meilen
Wolken Bedeckt 7500 ft
Windchill 47 °F
Taupunkt 44 °F
Feuchtigkeit 89%
Regen 0.00 inch
Schneehöhe Nicht verfügbar..
6:37 AM 5:55 PM
Letztes Viertel, 0% visible
METAR KSBP 260656Z AUTO 00000KT 10SM OVC075 09/06 A3003 RMK AO2 SLP168 T00890056
Druck 30.03 inch
Sichtweite 10.0 Meilen
Wolken Bedeckt 7500 ft
Windchill 47 °F
Taupunkt 44 °F
Feuchtigkeit 89%
Regen 0.00 inch
Schneehöhe Nicht verfügbar..
6:37 AM 5:55 PM
Letztes Viertel, 0% visible
METAR KSBP 260656Z AUTO 00000KT 10SM OVC075 09/06 A3003 RMK AO2 SLP168 T00890056

Get Your Daily Forecast Email!

Thanks for signing up!

Be on the lookout for a verification email in your inbox.

You'll start receiving the daily forecast at 8 AM.

×

10-Day Weather Forecast

Almanac

Astronomie

Feb. 25, 2017 Aufgang Untergang
Genaue Zeit
Bürgerliche Dämmerung
Nautische Dämmerung
Astronomische Dämmerung
Mond
Länge des sichtbaren Lichts
Tageslänge
Tomorrow will be .
, % of the Moon is Illuminated

Heutige Rekorde

State Highs State Lows

Community

WunderPhotos

Upload Photos

1,962,540 Fotos hochgeladen!

WunderBlog® & News

Nearby

Luftqualität

  Luftqualität LQ Index Schadstoff
Not available.

Schneehöhe

Station Depth Höhe

Erdbebenaktivität

Stadt Distance Mag. Time & Date
Minimum magnitude displayed is 2.5.

küstennahe Wassertemperaturen

Ort Temperatur

Stations

Wetterstationen in der Umgebung

Stationsstandort Temp. Windchill Taupunkt Feuchtigkeit Wind Precip. Höhe Aktualisiert Art
                   

Watches & Warnings

There are currently no watches in effect.